CheckWX is a tool to help pilots better visualize weather data.  It is not intended as a substitute for an official pre-flight weather briefing.

18:13:31 UTC

KAQP METAR
Appleton Municipal Airport
Appleton, Minnesota, USA
Current

24 mins ago

KAQP 241750Z AUTO 25011KT 10SM CLR 24/03 A2972 RMK AO2
Observed
Apr-24 @ 17:50 UTC
Wind
  • 250° at 11 KTS
Visibility
10 SM
Flight Rules
VFR
Cloud Levels
  • Clear skies
Temperature
24°C / 75°F
Dewpoint
C / 37°F
Humidity
25%
Altimeter
29.72" Hg
Pressure
1006.42 hPa
Previous

38 mins ago

KAQP 241736Z AUTO 24012KT 10SM CLR 24/04 A2972 RMK AO2
Observed
Apr-24 @ 17:36 UTC
Wind
  • 240° at 12 KTS
Visibility
10 SM
Flight Rules
VFR
Cloud Levels
  • Clear skies
Temperature
24°C / 75°F
Dewpoint
C / 39°F
Humidity
27%
Altimeter
29.72" Hg
Pressure
1006.42 hPa
Previous

1 hour ago

KAQP 241711Z AUTO 24012G16KT 10SM CLR 23/04 A2973 RMK AO2
Observed
Apr-24 @ 17:11 UTC
Wind
  • 240° at 12 KTS
  • Gusting to 16 KTS
Visibility
10 SM
Flight Rules
VFR
Cloud Levels
  • Clear skies
Temperature
23°C / 73°F
Dewpoint
C / 39°F
Humidity
29%
Altimeter
29.73" Hg
Pressure
1006.82 hPa